createdAt,value
2019-01-28T00:00:32.620Z,5.30
2019-01-28T00:03:06.126Z,5.40
2019-01-28T00:05:37.162Z,5.50
2019-01-28T00:08:08.245Z,5.40
2019-01-28T00:10:39.210Z,5.40
2019-01-28T00:13:10.653Z,5.40
2019-01-28T00:15:42.756Z,5.30
2019-01-28T00:18:13.636Z,5.30
2019-01-28T00:20:44.623Z,5.30
2019-01-28T00:23:15.508Z,5.50
2019-01-28T00:25:46.510Z,5.50
2019-01-28T00:28:17.614Z,5.40
2019-01-28T00:30:48.864Z,5.40
2019-01-28T00:33:23.968Z,5.40
2019-01-28T00:35:58.126Z,5.30
2019-01-28T00:38:29.215Z,5.30
2019-01-28T00:41:01.112Z,5.10
2019-01-28T00:43:32.059Z,5.00
2019-01-28T00:46:03.050Z,5.00
2019-01-28T00:48:39.498Z,4.90
2019-01-28T00:51:10.512Z,4.90
2019-01-28T00:53:41.341Z,4.90
2019-01-28T00:56:12.430Z,4.90
2019-01-28T00:58:43.288Z,4.80
2019-01-28T01:01:14.410Z,4.80
2019-01-28T01:03:45.444Z,4.70
2019-01-28T01:06:16.557Z,4.70
2019-01-28T01:08:48.383Z,4.80
2019-01-28T01:11:19.332Z,4.60
2019-01-28T01:13:50.198Z,4.60
2019-01-28T01:16:21.312Z,4.60
2019-01-28T01:18:53.236Z,4.60
2019-01-28T01:21:24.266Z,4.60
2019-01-28T01:23:55.220Z,4.60
2019-01-28T01:26:26.156Z,4.60
2019-01-28T01:28:57.043Z,4.50
2019-01-28T01:31:28.092Z,4.50
2019-01-28T01:33:59.122Z,4.50
2019-01-28T01:36:30.116Z,4.50
2019-01-28T01:39:02.162Z,4.50
2019-01-28T01:41:34.945Z,4.60
2019-01-28T01:44:06.464Z,4.70
2019-01-28T01:46:37.564Z,4.70
2019-01-28T01:49:08.476Z,4.60
2019-01-28T01:51:42.506Z,4.60
2019-01-28T01:54:13.356Z,4.70
2019-01-28T01:56:44.250Z,4.60
2019-01-28T01:59:15.142Z,4.70
2019-01-28T02:01:46.036Z,4.80
2019-01-28T02:04:16.919Z,4.80
2019-01-28T02:06:47.806Z,4.80
2019-01-28T02:09:22.316Z,4.80
2019-01-28T02:11:53.307Z,4.80
2019-01-28T02:14:24.343Z,4.70
2019-01-28T02:16:55.390Z,4.70
2019-01-28T02:19:26.288Z,4.60
2019-01-28T02:21:57.267Z,4.60
2019-01-28T02:24:28.198Z,4.60
2019-01-28T02:26:59.088Z,4.70
2019-01-28T02:29:29.958Z,4.80
2019-01-28T02:32:01.102Z,4.90
2019-01-28T02:34:33.072Z,4.80
2019-01-28T02:37:03.958Z,4.70
2019-01-28T02:39:34.819Z,4.80
2019-01-28T02:42:06.160Z,4.80
2019-01-28T02:44:37.015Z,4.80
2019-01-28T02:47:07.956Z,4.70
2019-01-28T02:49:38.832Z,4.70
2019-01-28T02:52:09.735Z,4.60
2019-01-28T02:54:40.927Z,4.70
2019-01-28T02:57:11.949Z,4.80
2019-01-28T02:59:43.055Z,4.80
2019-01-28T03:02:14.093Z,4.80
2019-01-28T03:04:45.092Z,4.70
2019-01-28T03:07:16.301Z,4.80
2019-01-28T03:09:47.430Z,4.80
2019-01-28T03:12:21.746Z,4.90
2019-01-28T03:14:55.619Z,5.00
2019-01-28T03:17:26.554Z,5.20
2019-01-28T03:19:57.426Z,5.30
2019-01-28T03:22:28.444Z,5.20
2019-01-28T03:24:59.378Z,5.10
2019-01-28T03:27:30.437Z,5.10
2019-01-28T03:30:01.455Z,4.90
2019-01-28T03:32:32.726Z,4.90
2019-01-28T03:35:04.439Z,4.80
2019-01-28T03:37:35.433Z,4.90
2019-01-28T03:40:10.187Z,4.90
2019-01-28T03:42:41.217Z,4.80
2019-01-28T03:45:15.889Z,4.80
2019-01-28T03:47:47.112Z,4.80
2019-01-28T03:50:19.443Z,4.80
2019-01-28T03:52:50.591Z,4.80
2019-01-28T03:55:23.387Z,4.70
2019-01-28T03:57:54.507Z,4.90
2019-01-28T04:00:26.590Z,4.90
2019-01-28T04:02:57.870Z,4.90
2019-01-28T04:05:28.862Z,4.90
2019-01-28T04:08:01.428Z,4.90
2019-01-28T04:10:32.492Z,4.80
2019-01-28T04:13:03.469Z,4.70
2019-01-28T04:15:34.557Z,4.70
2019-01-28T04:18:05.716Z,4.70
2019-01-28T04:20:36.712Z,4.60
2019-01-28T04:23:07.683Z,4.70
2019-01-28T04:25:38.669Z,4.80
2019-01-28T04:28:22.239Z,4.70
2019-01-28T04:30:53.095Z,4.70
2019-01-28T04:33:24.004Z,4.70
2019-01-28T04:35:55.089Z,4.70
2019-01-28T04:38:26.673Z,4.70
2019-01-28T04:40:57.783Z,4.70
2019-01-28T04:43:30.251Z,4.70
2019-01-28T04:46:01.773Z,4.80
2019-01-28T04:48:32.957Z,4.80
2019-01-28T04:51:03.917Z,4.90
2019-01-28T04:53:54.343Z,4.90
2019-01-28T04:56:25.353Z,4.90
2019-01-28T04:58:56.371Z,4.90
2019-01-28T05:01:27.234Z,4.80
2019-01-28T05:03:58.283Z,4.80
2019-01-28T05:06:29.190Z,4.90
2019-01-28T05:09:00.071Z,4.90
2019-01-28T05:11:30.911Z,4.90
2019-01-28T05:14:02.110Z,4.90
2019-01-28T05:16:33.308Z,4.80
2019-01-28T05:19:06.686Z,4.90
2019-01-28T05:21:38.975Z,4.90
2019-01-28T05:24:16.055Z,4.80
2019-01-28T05:26:50.685Z,4.80
2019-01-28T05:29:21.777Z,4.80
2019-01-28T05:31:53.875Z,5.00
2019-01-28T05:34:24.934Z,5.00
2019-01-28T05:36:55.907Z,5.00
2019-01-28T05:39:27.574Z,4.90
2019-01-28T05:41:58.456Z,4.90
2019-01-28T05:44:29.384Z,4.80
2019-01-28T05:47:00.342Z,4.80
2019-01-28T05:49:36.991Z,4.80
2019-01-28T05:52:11.533Z,4.80
2019-01-28T05:54:43.957Z,4.70
2019-01-28T05:57:15.190Z,4.70
2019-01-28T05:59:49.261Z,4.70
2019-01-28T06:02:20.980Z,4.70
2019-01-28T06:04:51.944Z,4.80
2019-01-28T06:07:24.583Z,4.80
2019-01-28T06:09:55.697Z,4.70
2019-01-28T06:12:26.660Z,4.60
2019-01-28T06:15:00.410Z,4.70
2019-01-28T06:17:38.843Z,4.70
2019-01-28T06:20:08.309Z,4.70
2019-01-28T06:22:39.220Z,4.70
2019-01-28T06:25:10.477Z,4.70
2019-01-28T06:27:41.430Z,4.70
2019-01-28T06:30:17.885Z,4.70
2019-01-28T06:32:49.133Z,4.70
2019-01-28T06:35:32.454Z,4.80
2019-01-28T06:38:15.458Z,4.80
2019-01-28T06:40:46.589Z,4.80
2019-01-28T06:43:17.592Z,4.70
2019-01-28T06:45:50.032Z,4.70
2019-01-28T06:48:23.841Z,4.70
2019-01-28T06:50:55.197Z,4.70
2019-01-28T06:53:26.260Z,4.60
2019-01-28T06:55:57.608Z,4.60
2019-01-28T06:58:34.319Z,4.60
2019-01-28T07:01:09.147Z,4.70
2019-01-28T07:03:41.069Z,4.70
2019-01-28T07:06:12.075Z,4.60
2019-01-28T07:08:43.901Z,4.60
2019-01-28T07:11:14.948Z,4.60
2019-01-28T07:13:46.928Z,4.50
2019-01-28T07:16:18.047Z,4.60
2019-01-28T07:18:48.987Z,4.60
2019-01-28T07:21:26.181Z,4.60
2019-01-28T07:23:57.832Z,4.60
2019-01-28T07:26:31.308Z,4.60
2019-01-28T07:29:06.812Z,4.60
2019-01-28T07:31:38.059Z,4.70
2019-01-28T07:34:09.196Z,4.70
2019-01-28T07:36:40.284Z,4.60
2019-01-28T07:39:11.370Z,4.60
2019-01-28T07:41:42.358Z,4.60
2019-01-28T07:44:13.394Z,4.60
2019-01-28T07:46:44.445Z,4.70
2019-01-28T07:49:15.358Z,4.70
2019-01-28T07:51:46.235Z,4.80
2019-01-28T07:54:17.151Z,4.80
2019-01-28T07:56:48.074Z,4.80
2019-01-28T07:59:19.000Z,4.70
2019-01-28T08:01:50.090Z,4.70
2019-01-28T08:04:21.050Z,4.60
2019-01-28T08:06:59.319Z,4.60
2019-01-28T08:09:24.975Z,4.50
2019-01-28T08:11:55.868Z,4.60
2019-01-28T08:14:26.987Z,4.70
2019-01-28T08:16:59.459Z,4.70
2019-01-28T08:19:30.352Z,4.70
2019-01-28T08:22:01.230Z,4.60
2019-01-28T08:24:32.112Z,4.60
2019-01-28T08:27:03.033Z,4.70
2019-01-28T08:29:35.053Z,4.70
2019-01-28T08:32:06.611Z,4.60
2019-01-28T08:34:38.046Z,4.70
2019-01-28T08:37:09.262Z,4.70
2019-01-28T08:39:40.613Z,4.70
2019-01-28T08:42:11.817Z,4.60
2019-01-28T08:44:43.053Z,4.60
2019-01-28T08:47:14.333Z,4.60
2019-01-28T08:49:45.404Z,4.60
2019-01-28T08:52:16.513Z,4.60
2019-01-28T08:54:47.546Z,4.50
2019-01-28T08:57:18.678Z,4.60
2019-01-28T08:59:49.769Z,4.70
2019-01-28T09:02:20.872Z,4.70
2019-01-28T09:04:51.915Z,4.70
2019-01-28T09:07:22.812Z,4.70
2019-01-28T09:09:53.796Z,4.70
2019-01-28T09:12:24.824Z,4.70
2019-01-28T09:14:55.733Z,4.70
2019-01-28T09:17:26.879Z,4.80
2019-01-28T09:19:59.008Z,4.80
2019-01-28T09:22:30.191Z,4.90
2019-01-28T09:25:01.185Z,4.90
2019-01-28T09:27:32.212Z,4.90
2019-01-28T09:30:03.141Z,4.80
2019-01-28T09:32:34.339Z,4.80
2019-01-28T09:35:06.338Z,4.60
2019-01-28T09:37:37.621Z,4.60
2019-01-28T09:40:10.617Z,4.70
2019-01-28T09:42:41.842Z,4.70
2019-01-28T09:45:18.484Z,4.80
2019-01-28T09:47:53.068Z,4.80
2019-01-28T09:50:24.630Z,4.80
2019-01-28T09:52:57.154Z,4.90
2019-01-28T09:55:28.321Z,4.90
2019-01-28T09:57:59.490Z,4.90
2019-01-28T10:00:51.607Z,5.00
2019-01-28T10:03:22.965Z,5.10
2019-01-28T10:05:59.197Z,5.10
2019-01-28T10:08:37.738Z,5.10
2019-01-28T10:11:08.777Z,5.30
2019-01-28T10:13:39.829Z,5.30
2019-01-28T10:16:10.843Z,5.30
2019-01-28T10:18:42.183Z,5.40
2019-01-28T10:21:13.385Z,5.40
2019-01-28T10:23:44.497Z,5.30
2019-01-28T10:26:17.335Z,5.20
2019-01-28T10:28:48.363Z,5.30
2019-01-28T10:31:19.378Z,5.40
2019-01-28T10:33:50.330Z,5.30
2019-01-28T10:36:22.750Z,5.40
2019-01-28T10:38:53.953Z,5.30
2019-01-28T10:41:25.357Z,5.30
2019-01-28T10:43:56.317Z,5.20
2019-01-28T10:46:27.439Z,5.10
2019-01-28T10:49:07.543Z,5.20
2019-01-28T10:51:38.711Z,5.10
2019-01-28T10:54:09.993Z,5.00
2019-01-28T10:56:41.284Z,5.10
2019-01-28T10:59:14.826Z,5.10
2019-01-28T11:01:45.785Z,5.20
2019-01-28T11:04:16.821Z,5.20
2019-01-28T11:06:47.723Z,5.20
2019-01-28T11:09:18.835Z,5.20
2019-01-28T11:11:49.949Z,5.30
2019-01-28T11:14:23.133Z,5.30
2019-01-28T11:16:54.629Z,5.30
2019-01-28T11:19:25.684Z,5.30
2019-01-28T11:21:56.951Z,5.40
2019-01-28T11:24:31.020Z,5.50
2019-01-28T11:27:01.956Z,5.50
2019-01-28T11:29:35.194Z,5.60
2019-01-28T11:32:06.419Z,5.70
2019-01-28T11:34:37.694Z,5.70
2019-01-28T11:37:08.893Z,5.70
2019-01-28T11:39:40.225Z,5.70
2019-01-28T11:42:11.527Z,5.70
2019-01-28T11:44:42.661Z,5.60
2019-01-28T11:47:13.718Z,5.60
2019-01-28T11:49:45.132Z,5.50
2019-01-28T11:52:16.277Z,5.50
2019-01-28T11:54:55.083Z,5.40
2019-01-28T11:57:26.138Z,5.50
2019-01-28T11:59:57.313Z,5.50
2019-01-28T12:02:34.242Z,5.60
2019-01-28T12:05:00.998Z,5.60
2019-01-28T12:07:32.152Z,5.70
2019-01-28T12:10:03.238Z,5.80
2019-01-28T12:12:34.435Z,5.90
2019-01-28T12:15:07.783Z,5.80
2019-01-28T12:17:38.793Z,5.90
2019-01-28T12:20:12.250Z,5.90
2019-01-28T12:22:43.713Z,5.90
2019-01-28T12:25:15.689Z,6.00
2019-01-28T12:27:47.128Z,5.90
2019-01-28T12:30:23.658Z,6.00
2019-01-28T12:32:54.729Z,6.00
2019-01-28T12:35:25.927Z,5.90
2019-01-28T12:37:56.926Z,5.90
2019-01-28T12:40:28.149Z,6.00
2019-01-28T12:42:59.264Z,6.20
2019-01-28T12:45:30.660Z,6.10
2019-01-28T12:48:01.615Z,6.10
2019-01-28T12:50:32.721Z,6.20
2019-01-28T12:53:03.702Z,6.10
2019-01-28T12:55:34.614Z,6.10
2019-01-28T12:58:07.018Z,6.10
2019-01-28T13:00:44.300Z,6.00
2019-01-28T13:03:16.685Z,6.00
2019-01-28T13:05:55.961Z,6.10
2019-01-28T13:08:27.838Z,6.00
2019-01-28T13:10:58.927Z,6.10
2019-01-28T13:13:30.042Z,6.10
2019-01-28T13:16:01.131Z,6.00
2019-01-28T13:18:32.017Z,6.10
2019-01-28T13:21:03.083Z,6.10
2019-01-28T13:23:34.142Z,6.10
2019-01-28T13:26:05.718Z,6.00
2019-01-28T13:28:40.060Z,6.00
2019-01-28T13:31:11.128Z,6.00
2019-01-28T13:33:42.182Z,6.10
2019-01-28T13:36:13.312Z,6.00
2019-01-28T13:38:44.248Z,6.00
2019-01-28T13:41:15.150Z,6.00
2019-01-28T13:43:46.038Z,5.90
2019-01-28T13:46:17.128Z,5.80
2019-01-28T13:48:48.142Z,5.70
2019-01-28T13:51:19.440Z,5.80
2019-01-28T13:53:50.510Z,5.60
2019-01-28T13:56:21.548Z,5.70
2019-01-28T13:58:52.412Z,5.70
2019-01-28T14:01:23.538Z,5.70
2019-01-28T14:03:58.630Z,5.70
2019-01-28T14:06:34.278Z,5.80
2019-01-28T14:09:09.123Z,5.70
2019-01-28T14:11:40.461Z,5.70
2019-01-28T14:14:11.661Z,5.70
2019-01-28T14:16:42.652Z,5.70
2019-01-28T14:19:13.551Z,5.50
2019-01-28T14:21:47.212Z,5.50
2019-01-28T14:24:18.090Z,5.40
2019-01-28T14:26:49.126Z,5.30
2019-01-28T14:29:20.152Z,5.30
2019-01-28T14:31:51.068Z,5.10
2019-01-28T14:34:29.857Z,5.00
2019-01-28T14:37:00.821Z,5.10
2019-01-28T14:39:31.684Z,5.00
2019-01-28T14:42:02.773Z,5.10
2019-01-28T14:44:33.829Z,5.10
2019-01-28T14:47:04.855Z,5.00
2019-01-28T14:49:37.429Z,5.00
2019-01-28T14:52:08.937Z,5.00
2019-01-28T14:54:40.454Z,5.10
2019-01-28T14:57:11.654Z,5.10
2019-01-28T14:59:44.059Z,5.20
2019-01-28T15:02:15.295Z,5.10
2019-01-28T15:04:46.375Z,5.00
2019-01-28T15:07:17.377Z,5.00
2019-01-28T15:09:48.261Z,4.90
2019-01-28T15:12:19.501Z,4.80
2019-01-28T15:14:50.572Z,4.80
2019-01-28T15:17:22.931Z,4.70
2019-01-28T15:19:54.025Z,4.70
2019-01-28T15:22:25.084Z,4.80
2019-01-28T15:24:55.961Z,4.80
2019-01-28T15:27:31.667Z,4.90
2019-01-28T15:30:05.090Z,4.90
2019-01-28T15:32:39.957Z,4.80
2019-01-28T15:35:11.539Z,4.80
2019-01-28T15:37:42.855Z,4.90
2019-01-28T15:40:19.395Z,4.80
2019-01-28T15:42:51.148Z,4.80
2019-01-28T15:45:25.765Z,4.80
2019-01-28T15:47:56.882Z,4.70
2019-01-28T15:50:32.025Z,4.60
2019-01-28T15:53:05.739Z,4.50
2019-01-28T15:55:39.983Z,4.40
2019-01-28T15:58:14.199Z,4.30
2019-01-28T16:00:46.542Z,4.30
2019-01-28T16:03:17.915Z,4.30
2019-01-28T16:05:49.004Z,4.30
2019-01-28T16:08:20.025Z,4.30
2019-01-28T16:10:51.111Z,4.40
2019-01-28T16:13:22.134Z,4.40
2019-01-28T16:15:54.505Z,4.30
2019-01-28T16:18:38.469Z,4.30
2019-01-28T16:21:09.370Z,4.10
2019-01-28T16:23:40.357Z,4.20
2019-01-28T16:26:11.433Z,4.20
2019-01-28T16:28:42.437Z,4.40
2019-01-28T16:31:16.018Z,4.30
2019-01-28T16:33:47.681Z,4.40
2019-01-28T16:36:18.943Z,4.30
2019-01-28T16:38:50.385Z,4.40
2019-01-28T16:41:21.962Z,4.30
2019-01-28T16:43:54.253Z,4.30
2019-01-28T16:46:25.472Z,4.20
2019-01-28T16:48:56.635Z,4.20
2019-01-28T16:51:28.099Z,4.20
2019-01-28T16:54:00.729Z,4.10
2019-01-28T16:56:31.645Z,4.00
2019-01-28T16:59:02.668Z,4.10
2019-01-28T17:01:33.714Z,4.00
2019-01-28T17:04:05.636Z,3.90
2019-01-28T17:06:36.648Z,4.00
2019-01-28T17:09:09.926Z,4.00
2019-01-28T17:11:41.154Z,4.00
2019-01-28T17:14:12.045Z,4.00
2019-01-28T17:16:43.077Z,4.00
2019-01-28T17:19:14.014Z,3.70
2019-01-28T17:21:44.887Z,3.60
2019-01-28T17:24:15.875Z,3.50
2019-01-28T17:26:48.187Z,3.30
2019-01-28T17:29:19.515Z,3.20
2019-01-28T17:31:50.449Z,3.10
2019-01-28T17:34:21.508Z,3.00
2019-01-28T17:36:52.673Z,2.90
2019-01-28T17:39:25.380Z,2.80
2019-01-28T17:41:56.516Z,2.70
2019-01-28T17:44:27.866Z,2.70
2019-01-28T17:46:59.190Z,2.60
2019-01-28T17:49:30.468Z,2.50
2019-01-28T17:52:01.792Z,2.40
2019-01-28T17:54:33.131Z,2.40
2019-01-28T17:57:04.369Z,2.30
2019-01-28T17:59:35.580Z,2.30
2019-01-28T18:02:08.973Z,2.20
2019-01-28T18:04:39.967Z,2.20
2019-01-28T18:07:23.383Z,2.20
2019-01-28T18:09:54.368Z,2.20
2019-01-28T18:12:26.293Z,2.10
2019-01-28T18:14:57.181Z,2.10
2019-01-28T18:17:28.064Z,2.10
2019-01-28T18:19:59.546Z,2.00
2019-01-28T18:22:41.778Z,2.00
2019-01-28T18:25:19.176Z,2.00
2019-01-28T18:27:50.096Z,2.00
2019-01-28T18:30:28.890Z,2.00
2019-01-28T18:32:59.831Z,1.90
2019-01-28T18:35:30.944Z,1.90
2019-01-28T18:38:02.064Z,1.90
2019-01-28T18:40:33.145Z,1.90
2019-01-28T18:43:08.029Z,1.90
2019-01-28T18:45:39.458Z,1.90
2019-01-28T18:48:11.219Z,1.80
2019-01-28T18:50:42.532Z,1.70
2019-01-28T18:53:13.817Z,1.70
2019-01-28T18:55:45.009Z,1.80
2019-01-28T18:58:16.203Z,1.70
2019-01-28T19:00:47.548Z,1.60
2019-01-28T19:03:18.570Z,1.50
2019-01-28T19:06:18.058Z,1.50
2019-01-28T19:09:17.024Z,1.50
2019-01-28T19:11:57.502Z,1.50
2019-01-28T19:14:58.033Z,1.30
2019-01-28T19:17:33.977Z,1.30
2019-01-28T19:20:18.117Z,1.30
2019-01-28T19:22:49.365Z,1.30
2019-01-28T19:25:20.568Z,1.30
2019-01-28T19:27:51.630Z,1.20
2019-01-28T19:30:22.829Z,1.20
2019-01-28T19:32:54.111Z,1.20
2019-01-28T19:35:26.058Z,1.20
2019-01-28T19:37:57.165Z,1.20
2019-01-28T19:40:28.318Z,1.20
2019-01-28T19:42:59.511Z,1.10
2019-01-28T19:45:30.691Z,1.20
2019-01-28T19:48:01.878Z,1.20
2019-01-28T19:50:33.186Z,1.20
2019-01-28T19:53:04.790Z,1.20
2019-01-28T19:55:36.378Z,1.30
2019-01-28T19:58:07.637Z,1.20
2019-01-28T20:00:39.307Z,1.20
2019-01-28T20:03:13.609Z,1.20
2019-01-28T20:05:44.795Z,1.20
2019-01-28T20:08:15.961Z,1.20
2019-01-28T20:10:47.085Z,1.10
2019-01-28T20:13:18.391Z,1.20
2019-01-28T20:15:49.809Z,1.20
2019-01-28T20:18:21.453Z,1.20
2019-01-28T20:20:54.555Z,1.10
2019-01-28T20:23:26.995Z,1.00
2019-01-28T20:25:58.519Z,1.00
2019-01-28T20:28:29.889Z,1.00
2019-01-28T20:31:01.275Z,0.90
2019-01-28T20:33:32.532Z,0.90
2019-01-28T20:36:03.797Z,0.80
2019-01-28T20:38:35.016Z,0.80
2019-01-28T20:41:06.429Z,0.80
2019-01-28T20:43:37.573Z,0.70
2019-01-28T20:46:08.757Z,0.70
2019-01-28T20:48:39.814Z,0.70
2019-01-28T20:51:10.993Z,0.70
2019-01-28T20:53:43.688Z,0.80
2019-01-28T20:56:14.819Z,0.70
2019-01-28T20:58:48.154Z,0.80
2019-01-28T21:01:19.370Z,0.80
2019-01-28T21:03:50.511Z,0.80
2019-01-28T21:06:21.732Z,0.80
2019-01-28T21:08:52.867Z,0.80
2019-01-28T21:11:25.007Z,0.80
2019-01-28T21:13:56.047Z,0.80
2019-01-28T21:16:27.242Z,0.70
2019-01-28T21:18:58.283Z,0.60
2019-01-28T21:21:29.493Z,0.60
2019-01-28T21:24:00.743Z,0.60
2019-01-28T21:26:32.193Z,0.60
2019-01-28T21:29:04.137Z,0.60
2019-01-28T21:31:35.795Z,0.60
2019-01-28T21:34:07.193Z,0.60
2019-01-28T21:36:47.913Z,0.60
2019-01-28T21:39:24.530Z,0.60
2019-01-28T21:41:55.581Z,0.60
2019-01-28T21:44:26.582Z,0.70
2019-01-28T21:46:57.951Z,0.60
2019-01-28T21:49:28.928Z,0.60
2019-01-28T21:52:04.671Z,0.60
2019-01-28T21:54:35.825Z,0.60
2019-01-28T21:57:07.079Z,0.50
2019-01-28T21:59:38.428Z,0.40
2019-01-28T22:02:09.780Z,0.40
2019-01-28T22:04:41.126Z,0.40
2019-01-28T22:07:14.115Z,0.40
2019-01-28T22:09:45.153Z,0.30
2019-01-28T22:12:18.279Z,0.30
2019-01-28T22:14:49.476Z,0.30
2019-01-28T22:17:21.387Z,0.30
2019-01-28T22:19:52.375Z,0.30
2019-01-28T22:22:23.520Z,0.30
2019-01-28T22:24:54.577Z,0.30
2019-01-28T22:27:26.291Z,0.30
2019-01-28T22:29:57.396Z,0.30
2019-01-28T22:32:28.318Z,0.20
2019-01-28T22:34:59.231Z,0.20
2019-01-28T22:37:30.280Z,0.20
2019-01-28T22:40:01.298Z,0.10
2019-01-28T22:42:32.190Z,0.10
2019-01-28T22:45:03.126Z,0.10
2019-01-28T22:47:34.088Z,0.10
2019-01-28T22:50:07.857Z,0.10
2019-01-28T22:52:38.764Z,0.10
2019-01-28T22:55:11.311Z,0.10
2019-01-28T22:57:42.424Z,0.00
2019-01-28T23:00:54.575Z,0.00
2019-01-28T23:12:53.528Z,-0.10
2019-01-28T23:15:25.328Z,-0.10
2019-01-28T23:17:56.867Z,0.00
2019-01-28T23:20:28.806Z,-0.10
2019-01-28T23:23:00.429Z,-0.10
2019-01-28T23:25:31.929Z,-0.10
2019-01-28T23:28:03.483Z,-0.10
2019-01-28T23:30:35.218Z,-0.10
2019-01-28T23:33:07.597Z,0.00
2019-01-28T23:35:38.888Z,0.00
2019-01-28T23:38:10.351Z,-0.10
2019-01-28T23:40:41.808Z,-0.10
2019-01-28T23:43:13.263Z,-0.10
2019-01-28T23:45:45.220Z,-0.10
2019-01-28T23:48:16.734Z,-0.10
2019-01-28T23:50:48.250Z,-0.10
2019-01-28T23:53:19.708Z,0.00
2019-01-28T23:55:51.266Z,0.00
2019-01-28T23:58:41.763Z,0.00
